sensor_id;sensor_type;location;lat;lon;timestamp;pressure;altitude;pressure_sealevel;temperature;humidity
11808;BME280;5961;42.640;23.380;2023-04-23T00:01:06;94002.72;;;10.84;83.49
11808;BME280;5961;42.640;23.380;2023-04-23T00:03:34;94002.94;;;10.67;84.08
11808;BME280;5961;42.640;23.380;2023-04-23T00:06:03;94004.25;;;10.61;84.21
11808;BME280;5961;42.640;23.380;2023-04-23T00:08:31;94001.94;;;10.59;84.13
11808;BME280;5961;42.640;23.380;2023-04-23T00:11:00;93991.63;;;10.58;84.50
11808;BME280;5961;42.640;23.380;2023-04-23T00:13:27;94001.84;;;10.56;84.25
11808;BME280;5961;42.640;23.380;2023-04-23T00:15:55;93996.09;;;10.66;83.69
11808;BME280;5961;42.640;23.380;2023-04-23T00:18:22;93996.19;;;10.69;83.68
11808;BME280;5961;42.640;23.380;2023-04-23T00:20:49;93994.88;;;10.75;83.41
11808;BME280;5961;42.640;23.380;2023-04-23T00:23:16;94003.41;;;10.81;82.89
11808;BME280;5961;42.640;23.380;2023-04-23T00:25:43;94002.38;;;10.85;82.30
11808;BME280;5961;42.640;23.380;2023-04-23T00:28:11;94002.59;;;10.92;82.20
11808;BME280;5961;42.640;23.380;2023-04-23T00:30:38;94005.16;;;10.89;81.97
11808;BME280;5961;42.640;23.380;2023-04-23T00:33:04;94005.56;;;10.91;81.14
11808;BME280;5961;42.640;23.380;2023-04-23T00:35:31;94000.06;;;10.96;80.93
11808;BME280;5961;42.640;23.380;2023-04-23T00:37:58;93988.31;;;10.85;81.12
11808;BME280;5961;42.640;23.380;2023-04-23T00:40:25;93988.75;;;10.87;80.81
11808;BME280;5961;42.640;23.380;2023-04-23T00:42:51;93973.59;;;10.87;81.11
11808;BME280;5961;42.640;23.380;2023-04-23T00:45:21;93990.94;;;10.97;81.00
11808;BME280;5961;42.640;23.380;2023-04-23T00:47:48;93992.28;;;10.91;80.79
11808;BME280;5961;42.640;23.380;2023-04-23T00:50:15;93992.09;;;10.84;79.04
11808;BME280;5961;42.640;23.380;2023-04-23T00:52:42;93996.84;;;10.90;78.60
11808;BME280;5961;42.640;23.380;2023-04-23T00:55:09;93991.19;;;10.92;78.40
11808;BME280;5961;42.640;23.380;2023-04-23T00:57:36;93997.16;;;11.01;79.23
11808;BME280;5961;42.640;23.380;2023-04-23T01:00:05;93993.84;;;10.92;80.83
11808;BME280;5961;42.640;23.380;2023-04-23T01:02:34;93992.75;;;10.93;80.99
11808;BME280;5961;42.640;23.380;2023-04-23T01:05:03;93991.16;;;11.04;80.58
11808;BME280;5961;42.640;23.380;2023-04-23T01:07:33;93993.81;;;11.04;80.55
11808;BME280;5961;42.640;23.380;2023-04-23T01:10:00;93993.59;;;11.09;80.23
11808;BME280;5961;42.640;23.380;2023-04-23T01:12:27;93987.59;;;11.12;79.66
11808;BME280;5961;42.640;23.380;2023-04-23T01:14:54;93990.50;;;11.07;79.69
11808;BME280;5961;42.640;23.380;2023-04-23T01:17:21;93992.63;;;11.01;79.86
11808;BME280;5961;42.640;23.380;2023-04-23T01:19:49;93993.59;;;10.97;79.56
11808;BME280;5961;42.640;23.380;2023-04-23T01:22:17;93989.59;;;11.03;79.77
11808;BME280;5961;42.640;23.380;2023-04-23T01:24:44;93993.25;;;11.11;79.69
11808;BME280;5961;42.640;23.380;2023-04-23T01:27:12;93997.66;;;11.19;79.25
11808;BME280;5961;42.640;23.380;2023-04-23T01:29:39;93992.69;;;11.17;78.89
11808;BME280;5961;42.640;23.380;2023-04-23T01:32:07;93992.47;;;11.22;78.24
11808;BME280;5961;42.640;23.380;2023-04-23T01:34:34;93995.00;;;11.19;78.34
11808;BME280;5961;42.640;23.380;2023-04-23T01:37:02;93999.22;;;11.20;78.50
11808;BME280;5961;42.640;23.380;2023-04-23T01:39:30;94002.56;;;11.17;78.26
11808;BME280;5961;42.640;23.380;2023-04-23T01:41:57;94003.00;;;11.07;78.61
11808;BME280;5961;42.640;23.380;2023-04-23T01:44:24;93999.59;;;10.82;79.32
11808;BME280;5961;42.640;23.380;2023-04-23T01:46:51;94002.94;;;10.55;80.80
11808;BME280;5961;42.640;23.380;2023-04-23T01:49:18;94007.94;;;10.44;81.34
11808;BME280;5961;42.640;23.380;2023-04-23T01:51:45;94001.38;;;10.17;83.18
11808;BME280;5961;42.640;23.380;2023-04-23T01:54:12;94003.84;;;10.02;84.48
11808;BME280;5961;42.640;23.380;2023-04-23T01:56:40;93998.16;;;9.79;85.57
11808;BME280;5961;42.640;23.380;2023-04-23T01:59:07;94002.53;;;9.63;86.35
11808;BME280;5961;42.640;23.380;2023-04-23T02:01:41;94006.22;;;9.50;87.37
11808;BME280;5961;42.640;23.380;2023-04-23T02:04:09;94006.63;;;9.40;87.97
11808;BME280;5961;42.640;23.380;2023-04-23T02:06:36;93999.19;;;9.33;88.39
11808;BME280;5961;42.640;23.380;2023-04-23T02:09:03;94013.09;;;9.30;89.06
11808;BME280;5961;42.640;23.380;2023-04-23T02:11:29;93995.25;;;9.18;89.61
11808;BME280;5961;42.640;23.380;2023-04-23T02:13:58;94005.00;;;9.26;89.98
11808;BME280;5961;42.640;23.380;2023-04-23T02:16:25;94011.97;;;9.31;90.04
11808;BME280;5961;42.640;23.380;2023-04-23T02:18:52;94004.94;;;9.35;89.94
11808;BME280;5961;42.640;23.380;2023-04-23T02:21:19;94009.47;;;9.34;89.80
11808;BME280;5961;42.640;23.380;2023-04-23T02:23:46;94006.38;;;9.32;89.96
11808;BME280;5961;42.640;23.380;2023-04-23T02:26:13;93998.41;;;9.32;90.00
11808;BME280;5961;42.640;23.380;2023-04-23T02:28:40;94009.94;;;9.36;89.93
11808;BME280;5961;42.640;23.380;2023-04-23T02:31:08;93993.25;;;9.36;89.85
11808;BME280;5961;42.640;23.380;2023-04-23T02:33:34;93996.47;;;9.42;89.89
11808;BME280;5961;42.640;23.380;2023-04-23T02:36:01;94013.09;;;9.51;89.62
11808;BME280;5961;42.640;23.380;2023-04-23T02:38:28;93995.28;;;9.51;88.70
11808;BME280;5961;42.640;23.380;2023-04-23T02:40:54;93998.97;;;9.59;88.23
11808;BME280;5961;42.640;23.380;2023-04-23T02:43:21;94008.72;;;9.67;87.46
11808;BME280;5961;42.640;23.380;2023-04-23T02:45:48;93993.56;;;9.67;86.94
11808;BME280;5961;42.640;23.380;2023-04-23T02:48:16;94010.78;;;9.82;86.83
11808;BME280;5961;42.640;23.380;2023-04-23T02:50:43;94013.22;;;9.87;86.13
11808;BME280;5961;42.640;23.380;2023-04-23T02:53:11;94003.03;;;9.89;85.37
11808;BME280;5961;42.640;23.380;2023-04-23T02:55:37;94014.69;;;9.97;85.02
11808;BME280;5961;42.640;23.380;2023-04-23T02:58:04;94016.69;;;10.00;84.99
11808;BME280;5961;42.640;23.380;2023-04-23T03:00:31;94009.94;;;10.02;84.43
11808;BME280;5961;42.640;23.380;2023-04-23T03:02:57;94008.72;;;10.00;84.41
11808;BME280;5961;42.640;23.380;2023-04-23T03:05:25;94019.91;;;10.05;83.91
11808;BME280;5961;42.640;23.380;2023-04-23T03:07:52;94015.25;;;10.02;84.13
11808;BME280;5961;42.640;23.380;2023-04-23T03:10:19;94016.78;;;9.91;84.25
11808;BME280;5961;42.640;23.380;2023-04-23T03:12:45;94016.63;;;9.75;85.33
11808;BME280;5961;42.640;23.380;2023-04-23T03:15:12;94023.25;;;9.49;86.98
11808;BME280;5961;42.640;23.380;2023-04-23T03:17:39;94026.81;;;9.32;87.73
11808;BME280;5961;42.640;23.380;2023-04-23T03:20:07;94008.81;;;9.17;88.78
11808;BME280;5961;42.640;23.380;2023-04-23T03:22:36;94017.84;;;8.95;90.32
11808;BME280;5961;42.640;23.380;2023-04-23T03:25:03;94014.41;;;8.74;91.45
11808;BME280;5961;42.640;23.380;2023-04-23T03:27:31;94015.91;;;8.54;92.65
11808;BME280;5961;42.640;23.380;2023-04-23T03:29:57;94017.03;;;8.45;93.82
11808;BME280;5961;42.640;23.380;2023-04-23T03:32:24;94016.59;;;8.34;94.29
11808;BME280;5961;42.640;23.380;2023-04-23T03:34:51;94019.91;;;8.22;95.17
11808;BME280;5961;42.640;23.380;2023-04-23T03:37:18;94014.97;;;8.04;96.23
11808;BME280;5961;42.640;23.380;2023-04-23T03:39:46;94019.66;;;7.98;96.85
11808;BME280;5961;42.640;23.380;2023-04-23T03:42:12;94021.69;;;8.01;97.08
11808;BME280;5961;42.640;23.380;2023-04-23T03:44:39;94023.53;;;8.01;97.28
11808;BME280;5961;42.640;23.380;2023-04-23T03:47:05;94021.53;;;7.98;97.89
11808;BME280;5961;42.640;23.380;2023-04-23T03:49:32;94018.41;;;8.04;97.63
11808;BME280;5961;42.640;23.380;2023-04-23T03:51:59;94013.09;;;8.04;97.38
11808;BME280;5961;42.640;23.380;2023-04-23T03:54:25;94027.72;;;8.10;97.43
11808;BME280;5961;42.640;23.380;2023-04-23T03:56:54;94038.16;;;8.15;96.96
11808;BME280;5961;42.640;23.380;2023-04-23T03:59:22;94023.22;;;8.11;97.23
11808;BME280;5961;42.640;23.380;2023-04-23T04:01:48;94033.94;;;8.14;97.66
11808;BME280;5961;42.640;23.380;2023-04-23T04:04:15;94038.63;;;8.09;98.29
11808;BME280;5961;42.640;23.380;2023-04-23T04:06:42;94036.47;;;8.02;98.36
11808;BME280;5961;42.640;23.380;2023-04-23T04:09:08;94042.41;;;7.99;99.21
11808;BME280;5961;42.640;23.380;2023-04-23T04:11:35;94039.94;;;7.94;100.00
11808;BME280;5961;42.640;23.380;2023-04-23T04:14:03;94037.44;;;7.89;100.00
11808;BME280;5961;42.640;23.380;2023-04-23T04:16:30;94033.41;;;7.83;100.00
11808;BME280;5961;42.640;23.380;2023-04-23T04:18:57;94025.47;;;7.83;100.00
11808;BME280;5961;42.640;23.380;2023-04-23T04:21:23;94039.78;;;7.91;100.00
11808;BME280;5961;42.640;23.380;2023-04-23T04:23:50;94034.31;;;7.87;100.00
11808;BME280;5961;42.640;23.380;2023-04-23T04:26:17;94045.53;;;7.93;100.00
11808;BME280;5961;42.640;23.380;2023-04-23T04:28:44;94042.38;;;8.08;100.00
11808;BME280;5961;42.640;23.380;2023-04-23T04:31:13;94049.19;;;8.17;100.00
11808;BME280;5961;42.640;23.380;2023-04-23T04:33:41;94050.91;;;8.31;100.00
11808;BME280;5961;42.640;23.380;2023-04-23T04:36:10;94054.13;;;8.45;99.74
11808;BME280;5961;42.640;23.380;2023-04-23T04:38:38;94055.31;;;8.56;99.08
11808;BME280;5961;42.640;23.380;2023-04-23T04:41:05;94065.38;;;8.71;98.58
11808;BME280;5961;42.640;23.380;2023-04-23T04:43:32;94068.59;;;8.85;97.78
11808;BME280;5961;42.640;23.380;2023-04-23T04:45:58;94069.97;;;8.91;96.94
11808;BME280;5961;42.640;23.380;2023-04-23T04:48:26;94061.50;;;8.98;96.32
11808;BME280;5961;42.640;23.380;2023-04-23T04:50:53;94067.34;;;9.12;95.98
11808;BME280;5961;42.640;23.380;2023-04-23T04:53:20;94040.75;;;9.00;95.11
11808;BME280;5961;42.640;23.380;2023-04-23T04:55:47;94069.31;;;9.23;95.24
11808;BME280;5961;42.640;23.380;2023-04-23T04:58:13;94072.78;;;9.15;95.25
11808;BME280;5961;42.640;23.380;2023-04-23T05:00:40;94070.13;;;9.15;95.07
11808;BME280;5961;42.640;23.380;2023-04-23T05:03:07;94057.19;;;9.14;95.21
11808;BME280;5961;42.640;23.380;2023-04-23T05:05:35;94072.91;;;9.19;96.02
11808;BME280;5961;42.640;23.380;2023-04-23T05:08:02;94044.13;;;9.09;96.72
11808;BME280;5961;42.640;23.380;2023-04-23T05:10:29;94061.94;;;9.29;96.44
11808;BME280;5961;42.640;23.380;2023-04-23T05:12:56;94055.84;;;9.28;95.37
11808;BME280;5961;42.640;23.380;2023-04-23T05:15:22;94072.09;;;9.48;94.41
11808;BME280;5961;42.640;23.380;2023-04-23T05:17:49;94079.03;;;9.61;94.53
11808;BME280;5961;42.640;23.380;2023-04-23T05:20:18;94056.75;;;9.53;93.67
11808;BME280;5961;42.640;23.380;2023-04-23T05:22:46;94074.47;;;9.82;93.23
11808;BME280;5961;42.640;23.380;2023-04-23T05:25:13;94076.28;;;9.90;92.83
11808;BME280;5961;42.640;23.380;2023-04-23T05:27:40;94057.34;;;9.91;92.32
11808;BME280;5961;42.640;23.380;2023-04-23T05:30:09;94070.28;;;10.14;92.72
11808;BME280;5961;42.640;23.380;2023-04-23T05:32:36;94076.41;;;10.26;92.68
11808;BME280;5961;42.640;23.380;2023-04-23T05:35:04;94073.53;;;10.31;91.98
11808;BME280;5961;42.640;23.380;2023-04-23T05:37:31;94084.19;;;10.43;91.29
11808;BME280;5961;42.640;23.380;2023-04-23T05:39:59;94087.53;;;10.53;90.85
11808;BME280;5961;42.640;23.380;2023-04-23T05:42:26;94087.78;;;10.60;90.35
11808;BME280;5961;42.640;23.380;2023-04-23T05:44:53;94096.19;;;10.62;89.72
11808;BME280;5961;42.640;23.380;2023-04-23T05:47:20;94088.66;;;10.76;89.47
11808;BME280;5961;42.640;23.380;2023-04-23T05:49:47;94084.34;;;10.71;89.20
11808;BME280;5961;42.640;23.380;2023-04-23T05:52:13;94043.00;;;10.37;89.47
11808;BME280;5961;42.640;23.380;2023-04-23T05:54:40;94093.31;;;10.91;89.33
11808;BME280;5961;42.640;23.380;2023-04-23T05:57:09;94094.75;;;10.88;89.35
11808;BME280;5961;42.640;23.380;2023-04-23T05:59:36;94079.59;;;10.89;88.98
11808;BME280;5961;42.640;23.380;2023-04-23T06:02:03;94095.22;;;11.02;88.80
11808;BME280;5961;42.640;23.380;2023-04-23T06:04:33;94090.09;;;11.10;88.76
11808;BME280;5961;42.640;23.380;2023-04-23T06:07:00;94083.81;;;11.02;89.06
11808;BME280;5961;42.640;23.380;2023-04-23T06:09:27;94081.16;;;11.14;88.70
11808;BME280;5961;42.640;23.380;2023-04-23T06:11:54;94081.94;;;11.15;87.91
11808;BME280;5961;42.640;23.380;2023-04-23T06:14:22;94096.09;;;11.31;88.11
11808;BME280;5961;42.640;23.380;2023-04-23T06:16:49;94086.75;;;11.37;87.74
11808;BME280;5961;42.640;23.380;2023-04-23T06:19:16;94090.63;;;11.39;87.44
11808;BME280;5961;42.640;23.380;2023-04-23T06:21:42;94091.94;;;11.45;87.27
11808;BME280;5961;42.640;23.380;2023-04-23T06:24:09;94076.34;;;11.44;87.47
11808;BME280;5961;42.640;23.380;2023-04-23T06:26:36;94060.94;;;11.37;87.23
11808;BME280;5961;42.640;23.380;2023-04-23T06:29:03;94091.72;;;11.63;86.67
11808;BME280;5961;42.640;23.380;2023-04-23T06:31:31;94084.59;;;11.67;86.55
11808;BME280;5961;42.640;23.380;2023-04-23T06:33:58;94091.34;;;11.76;86.76
11808;BME280;5961;42.640;23.380;2023-04-23T06:36:24;94091.22;;;11.85;86.14
11808;BME280;5961;42.640;23.380;2023-04-23T06:38:51;94094.34;;;11.87;86.18
11808;BME280;5961;42.640;23.380;2023-04-23T06:41:18;94087.19;;;11.91;85.95
11808;BME280;5961;42.640;23.380;2023-04-23T06:43:45;94085.66;;;11.90;85.70
11808;BME280;5961;42.640;23.380;2023-04-23T06:46:12;94085.78;;;11.93;86.29
11808;BME280;5961;42.640;23.380;2023-04-23T06:48:41;94089.66;;;11.96;86.44
11808;BME280;5961;42.640;23.380;2023-04-23T06:51:07;94091.38;;;12.04;86.48
11808;BME280;5961;42.640;23.380;2023-04-23T06:53:35;94085.56;;;12.14;92.40
11808;BME280;5961;42.640;23.380;2023-04-23T06:56:02;94079.56;;;12.17;90.38
11808;BME280;5961;42.640;23.380;2023-04-23T06:58:29;94085.16;;;12.28;87.23
11808;BME280;5961;42.640;23.380;2023-04-23T07:00:56;94083.69;;;12.30;86.70
11808;BME280;5961;42.640;23.380;2023-04-23T07:03:25;94083.56;;;12.39;86.39
11808;BME280;5961;42.640;23.380;2023-04-23T07:05:53;94080.06;;;12.50;86.46
11808;BME280;5961;42.640;23.380;2023-04-23T07:08:20;94088.16;;;12.54;85.97
11808;BME280;5961;42.640;23.380;2023-04-23T07:10:47;94096.22;;;12.57;85.87
11808;BME280;5961;42.640;23.380;2023-04-23T07:13:13;94089.97;;;12.65;85.68
11808;BME280;5961;42.640;23.380;2023-04-23T07:15:40;94087.81;;;12.71;84.63
11808;BME280;5961;42.640;23.380;2023-04-23T07:18:08;94094.75;;;12.76;84.36
11808;BME280;5961;42.640;23.380;2023-04-23T07:20:35;94087.31;;;12.81;84.13
11808;BME280;5961;42.640;23.380;2023-04-23T07:23:03;94087.13;;;12.90;83.77
11808;BME280;5961;42.640;23.380;2023-04-23T07:25:30;94081.53;;;12.95;83.57
11808;BME280;5961;42.640;23.380;2023-04-23T07:27:57;94087.47;;;13.04;83.15
11808;BME280;5961;42.640;23.380;2023-04-23T07:30:24;94068.19;;;12.95;82.95
11808;BME280;5961;42.640;23.380;2023-04-23T07:32:52;94089.69;;;13.17;82.79
11808;BME280;5961;42.640;23.380;2023-04-23T07:35:20;94095.56;;;13.23;81.27
11808;BME280;5961;42.640;23.380;2023-04-23T07:37:46;94091.94;;;13.31;81.10
11808;BME280;5961;42.640;23.380;2023-04-23T07:40:19;94092.44;;;13.37;80.45
11808;BME280;5961;42.640;23.380;2023-04-23T07:42:46;94085.63;;;13.39;79.74
11808;BME280;5961;42.640;23.380;2023-04-23T07:45:13;94096.06;;;13.44;79.70
11808;BME280;5961;42.640;23.380;2023-04-23T07:47:40;94093.50;;;13.51;79.18
11808;BME280;5961;42.640;23.380;2023-04-23T07:50:07;94086.00;;;13.57;78.74
11808;BME280;5961;42.640;23.380;2023-04-23T07:52:34;94090.31;;;13.61;78.20
11808;BME280;5961;42.640;23.380;2023-04-23T07:55:01;94092.28;;;13.64;78.99
11808;BME280;5961;42.640;23.380;2023-04-23T07:57:29;94079.34;;;13.66;79.67
11808;BME280;5961;42.640;23.380;2023-04-23T07:59:56;94089.50;;;13.77;79.14
11808;BME280;5961;42.640;23.380;2023-04-23T08:02:23;94083.44;;;13.80;77.93
11808;BME280;5961;42.640;23.380;2023-04-23T08:04:50;94088.00;;;13.79;77.11
11808;BME280;5961;42.640;23.380;2023-04-23T08:07:17;94096.50;;;13.85;76.87
11808;BME280;5961;42.640;23.380;2023-04-23T08:09:44;94088.16;;;13.86;77.21
11808;BME280;5961;42.640;23.380;2023-04-23T08:12:11;94090.22;;;13.93;76.94
11808;BME280;5961;42.640;23.380;2023-04-23T08:14:39;94099.06;;;13.97;76.07
11808;BME280;5961;42.640;23.380;2023-04-23T08:17:06;94092.75;;;14.05;76.36
11808;BME280;5961;42.640;23.380;2023-04-23T08:19:32;94091.69;;;14.09;75.98
11808;BME280;5961;42.640;23.380;2023-04-23T08:21:59;94095.28;;;14.17;76.12
11808;BME280;5961;42.640;23.380;2023-04-23T08:24:26;94096.03;;;14.17;75.41
11808;BME280;5961;42.640;23.380;2023-04-23T08:26:52;94086.56;;;14.20;75.21
11808;BME280;5961;42.640;23.380;2023-04-23T08:29:19;94091.31;;;14.30;73.86
11808;BME280;5961;42.640;23.380;2023-04-23T08:31:47;94087.25;;;14.36;74.31
11808;BME280;5961;42.640;23.380;2023-04-23T08:34:14;94091.88;;;14.39;74.49
11808;BME280;5961;42.640;23.380;2023-04-23T08:36:41;94085.44;;;14.40;73.85
11808;BME280;5961;42.640;23.380;2023-04-23T08:39:07;94085.50;;;14.44;73.03
11808;BME280;5961;42.640;23.380;2023-04-23T08:41:38;94079.06;;;14.48;74.15
11808;BME280;5961;42.640;23.380;2023-04-23T08:44:11;94084.84;;;14.50;73.52
11808;BME280;5961;42.640;23.380;2023-04-23T08:46:41;94074.97;;;14.54;73.28
11808;BME280;5961;42.640;23.380;2023-04-23T08:49:12;94090.44;;;14.64;72.16
11808;BME280;5961;42.640;23.380;2023-04-23T08:51:42;94074.53;;;14.71;71.72
11808;BME280;5961;42.640;23.380;2023-04-23T08:54:24;94007.47;;;14.38;71.30
11808;BME280;5961;42.640;23.380;2023-04-23T08:56:54;94073.25;;;14.88;70.26
11808;BME280;5961;42.640;23.380;2023-04-23T08:59:22;94035.41;;;14.63;69.88
11808;BME280;5961;42.640;23.380;2023-04-23T09:01:49;94067.06;;;15.07;74.38
11808;BME280;5961;42.640;23.380;2023-04-23T09:04:17;94077.59;;;15.19;73.29
11808;BME280;5961;42.640;23.380;2023-04-23T09:06:44;94075.78;;;15.26;68.91
11808;BME280;5961;42.640;23.380;2023-04-23T09:09:14;94060.47;;;15.27;68.49
11808;BME280;5961;42.640;23.380;2023-04-23T09:11:41;94084.09;;;15.44;67.39
11808;BME280;5961;42.640;23.380;2023-04-23T09:14:08;94040.22;;;15.26;76.33
11808;BME280;5961;42.640;23.380;2023-04-23T09:16:36;94050.09;;;15.48;67.68
11808;BME280;5961;42.640;23.380;2023-04-23T09:19:06;94058.75;;;15.64;69.13
11808;BME280;5961;42.640;23.380;2023-04-23T09:21:37;94043.75;;;15.89;87.70
11808;BME280;5961;42.640;23.380;2023-04-23T09:24:05;94059.81;;;15.89;71.10
11808;BME280;5961;42.640;23.380;2023-04-23T09:26:31;94059.56;;;15.98;72.27
11808;BME280;5961;42.640;23.380;2023-04-23T09:28:58;94051.31;;;16.14;81.04
11808;BME280;5961;42.640;23.380;2023-04-23T09:31:25;94030.53;;;16.04;69.34
11808;BME280;5961;42.640;23.380;2023-04-23T09:33:52;94059.19;;;16.33;70.08
11808;BME280;5961;42.640;23.380;2023-04-23T09:36:20;94045.28;;;16.24;66.32
11808;BME280;5961;42.640;23.380;2023-04-23T09:38:49;94053.81;;;16.33;63.62
11808;BME280;5961;42.640;23.380;2023-04-23T09:41:20;94049.19;;;16.30;63.33
11808;BME280;5961;42.640;23.380;2023-04-23T09:43:47;94037.63;;;16.22;62.73
11808;BME280;5961;42.640;23.380;2023-04-23T09:46:14;94035.38;;;16.28;63.24
11808;BME280;5961;42.640;23.380;2023-04-23T09:48:41;94034.63;;;16.27;63.47
11808;BME280;5961;42.640;23.380;2023-04-23T09:51:08;94033.84;;;16.27;63.30
11808;BME280;5961;42.640;23.380;2023-04-23T09:53:39;94021.22;;;16.27;63.66
11808;BME280;5961;42.640;23.380;2023-04-23T09:56:08;94027.38;;;16.31;62.14
11808;BME280;5961;42.640;23.380;2023-04-23T09:58:36;94025.88;;;16.34;62.19
11808;BME280;5961;42.640;23.380;2023-04-23T10:01:07;94024.72;;;16.35;60.55
11808;BME280;5961;42.640;23.380;2023-04-23T10:03:34;94022.84;;;16.39;59.07
11808;BME280;5961;42.640;23.380;2023-04-23T10:06:00;94015.19;;;16.41;58.85
11808;BME280;5961;42.640;23.380;2023-04-23T10:08:27;94017.19;;;16.47;58.14
11808;BME280;5961;42.640;23.380;2023-04-23T10:10:54;94013.41;;;16.52;58.06
11808;BME280;5961;42.640;23.380;2023-04-23T10:13:22;93996.06;;;16.42;57.94
11808;BME280;5961;42.640;23.380;2023-04-23T10:15:49;93998.13;;;16.56;57.42
11808;BME280;5961;42.640;23.380;2023-04-23T10:18:18;93984.22;;;16.43;60.38
11808;BME280;5961;42.640;23.380;2023-04-23T10:20:46;94001.22;;;16.58;56.33
11808;BME280;5961;42.640;23.380;2023-04-23T10:23:14;93995.13;;;16.61;56.49
11808;BME280;5961;42.640;23.380;2023-04-23T10:25:42;93997.06;;;16.64;57.13
11808;BME280;5961;42.640;23.380;2023-04-23T10:28:10;93945.84;;;16.39;55.68
11808;BME280;5961;42.640;23.380;2023-04-23T10:30:39;93981.38;;;16.70;54.82
11808;BME280;5961;42.640;23.380;2023-04-23T10:33:07;93988.31;;;16.71;54.85
11808;BME280;5961;42.640;23.380;2023-04-23T10:35:36;93977.56;;;16.71;56.02
11808;BME280;5961;42.640;23.380;2023-04-23T10:38:03;93973.00;;;16.78;53.76
11808;BME280;5961;42.640;23.380;2023-04-23T10:40:31;93978.41;;;16.82;52.89
11808;BME280;5961;42.640;23.380;2023-04-23T10:42:59;93969.97;;;16.83;52.97
11808;BME280;5961;42.640;23.380;2023-04-23T10:45:29;93940.00;;;16.74;50.47
11808;BME280;5961;42.640;23.380;2023-04-23T10:47:57;93945.41;;;16.78;50.14
11808;BME280;5961;42.640;23.380;2023-04-23T10:50:25;93962.47;;;17.03;51.15
11808;BME280;5961;42.640;23.380;2023-04-23T10:52:53;93959.09;;;17.13;52.62
11808;BME280;5961;42.640;23.380;2023-04-23T10:55:22;93958.00;;;17.25;51.85
11808;BME280;5961;42.640;23.380;2023-04-23T10:58:00;93945.34;;;17.32;50.65
11808;BME280;5961;42.640;23.380;2023-04-23T11:00:28;93946.59;;;17.49;50.75
11808;BME280;5961;42.640;23.380;2023-04-23T11:02:55;93954.75;;;17.63;50.05
11808;BME280;5961;42.640;23.380;2023-04-23T11:05:23;93952.13;;;17.74;50.55
11808;BME280;5961;42.640;23.380;2023-04-23T11:08:02;93944.44;;;17.86;51.15
11808;BME280;5961;42.640;23.380;2023-04-23T11:10:30;93952.50;;;17.86;50.43
11808;BME280;5961;42.640;23.380;2023-04-23T11:13:24;93943.69;;;17.89;49.67
11808;BME280;5961;42.640;23.380;2023-04-23T11:16:16;93939.47;;;17.88;50.05
11808;BME280;5961;42.640;23.380;2023-04-23T11:19:00;93937.59;;;17.99;48.42
11808;BME280;5961;42.640;23.380;2023-04-23T11:22:01;93923.38;;;18.13;49.04
11808;BME280;5961;42.640;23.380;2023-04-23T11:24:32;93926.47;;;18.26;47.32
11808;BME280;5961;42.640;23.380;2023-04-23T11:27:04;93922.28;;;18.39;47.95
11808;BME280;5961;42.640;23.380;2023-04-23T11:29:31;93924.22;;;18.56;45.94
11808;BME280;5961;42.640;23.380;2023-04-23T11:31:58;93924.59;;;18.69;43.55
11808;BME280;5961;42.640;23.380;2023-04-23T11:34:25;93908.47;;;18.79;42.50
11808;BME280;5961;42.640;23.380;2023-04-23T11:36:53;93917.28;;;18.97;41.89
11808;BME280;5961;42.640;23.380;2023-04-23T11:39:22;93912.63;;;19.15;41.36
11808;BME280;5961;42.640;23.380;2023-04-23T11:41:50;93898.75;;;19.28;41.53
11808;BME280;5961;42.640;23.380;2023-04-23T11:44:18;93899.09;;;19.40;40.00
11808;BME280;5961;42.640;23.380;2023-04-23T11:46:45;93880.63;;;19.42;40.33
11808;BME280;5961;42.640;23.380;2023-04-23T11:49:13;93907.47;;;19.67;39.45
11808;BME280;5961;42.640;23.380;2023-04-23T11:51:41;93900.09;;;19.82;39.36
11808;BME280;5961;42.640;23.380;2023-04-23T11:54:09;93900.03;;;19.92;37.19
11808;BME280;5961;42.640;23.380;2023-04-23T11:56:38;93885.75;;;19.95;37.36
11808;BME280;5961;42.640;23.380;2023-04-23T11:59:05;93879.50;;;20.09;38.36
11808;BME280;5961;42.640;23.380;2023-04-23T12:01:39;93892.50;;;20.24;36.23
11808;BME280;5961;42.640;23.380;2023-04-23T12:04:14;93820.25;;;19.95;35.80
11808;BME280;5961;42.640;23.380;2023-04-23T12:06:42;93873.13;;;20.40;34.45
11808;BME280;5961;42.640;23.380;2023-04-23T12:09:11;93880.03;;;20.45;32.78
11808;BME280;5961;42.640;23.380;2023-04-23T12:11:40;93866.94;;;20.43;34.59
11808;BME280;5961;42.640;23.380;2023-04-23T12:14:07;93871.94;;;20.48;32.79
11808;BME280;5961;42.640;23.380;2023-04-23T12:16:38;93878.34;;;20.61;32.22
11808;BME280;5961;42.640;23.380;2023-04-23T12:19:08;93880.47;;;20.84;31.61
11808;BME280;5961;42.640;23.380;2023-04-23T12:21:46;93863.66;;;20.66;32.29
11808;BME280;5961;42.640;23.380;2023-04-23T12:24:13;93873.25;;;20.70;33.08
11808;BME280;5961;42.640;23.380;2023-04-23T12:26:41;93867.00;;;20.80;34.92
11808;BME280;5961;42.640;23.380;2023-04-23T12:29:08;93855.94;;;20.64;34.23
11808;BME280;5961;42.640;23.380;2023-04-23T12:31:38;93864.66;;;20.42;32.52
11808;BME280;5961;42.640;23.380;2023-04-23T12:34:05;93830.19;;;20.08;32.73
11808;BME280;5961;42.640;23.380;2023-04-23T12:36:36;93854.09;;;20.06;32.84
11808;BME280;5961;42.640;23.380;2023-04-23T12:39:19;93810.47;;;19.60;33.09
11808;BME280;5961;42.640;23.380;2023-04-23T12:41:48;93857.28;;;19.87;32.65
11808;BME280;5961;42.640;23.380;2023-04-23T12:44:15;93848.09;;;19.74;33.19
11808;BME280;5961;42.640;23.380;2023-04-23T12:46:42;93846.66;;;19.59;33.36
11808;BME280;5961;42.640;23.380;2023-04-23T12:49:09;93850.56;;;19.51;34.39
11808;BME280;5961;42.640;23.380;2023-04-23T12:51:35;93850.97;;;19.42;34.11
11808;BME280;5961;42.640;23.380;2023-04-23T12:54:03;93855.59;;;19.31;34.39
11808;BME280;5961;42.640;23.380;2023-04-23T12:56:29;93847.16;;;19.26;32.95
11808;BME280;5961;42.640;23.380;2023-04-23T12:58:58;93845.28;;;19.12;34.19
11808;BME280;5961;42.640;23.380;2023-04-23T13:01:26;93839.94;;;19.01;33.93
11808;BME280;5961;42.640;23.380;2023-04-23T13:03:53;93847.63;;;18.99;34.47
11808;BME280;5961;42.640;23.380;2023-04-23T13:06:20;93843.44;;;18.91;36.25